Plymouth, CA

2:15 AM PDT on October 25, 2014 (GMT -0700)
Downtown | Change Station
CLOSE
Current Station
Personal Weather Station
Location: Plymouth, CA
Elevation: 1093 ft
Nearby Weather Stations

Elev 1093 ft 38.48 °N, 120.84 °W | Updated 3 minutes ago

Clear
Clear
47.7 °F
Feels Like 48 °F
N
2.0
Wind Variable Wind from North
Gusts 2.0 mph

Today
High -- | Low -- °F
--% Chance of Precip.
Yesterday
High -- | Low -- °F
Precip. -- in
7:22 AM 6:11 PM
New Moon, 2% visible
Pressure 30.00 in
Visibility 7.0 miles
Clouds Overcast 300 ft
Windchill 48 °F
Dew Point 47 °F
Humidity 99%
Rainfall 0.00 in
Snow Depth Not available.
UV 0 out of 12
Pollen 3.50 out of 12
Ozone Good
Flu Activity Sporadic
METAR KPVF 250855Z AUTO 08004KT 7SM OVC003 11/10 A3000 RMK AO1

More Conditions Fewer Conditions

Pressure 30.00 in
Visibility 7.0 miles
Clouds Overcast 300 ft
Windchill 48 °F
Dew Point 47 °F
Humidity 99%
Rainfall 0.00 in
Snow Depth Not available.
UV 0 out of 12
Pollen 3.50 out of 12
Ozone Good
Flu Activity Sporadic
METAR KPVF 250855Z AUTO 08004KT 7SM OVC003 11/10 A3000 RMK AO1

More Conditions Fewer Conditions

10-Day Weather Forecast

Almanac

Astronomy

Oct. 25, 2014 Rise Set
Actual Time 7:22 AM PDT 6:11 PM PDT
Civil Twilight 6:55 AM PDT 6:38 PM PDT
Nautical Twilight 6:24 AM PDT 7:09 PM PDT
Astronomical Twilight 5:53 AM PDT 7:40 PM PDT
Moon 9:05 AM PDT 7:39 PM PDT
Length of Visible Light 11h 43m
Length of Day
10h 49m
Tomorrow will be 2m 17s shorter.
New Moon, 2% of the Moon is Illuminated
Today
New Moon
Oct 30
First Quarter
Nov 6
Full
Nov 14
Last Quarter
Nov 22
New

Today's Extremes

State Highs State Lows

Community

WunderPhotos

Upload Photos

1,764,796 photos uploaded!

Nearby

Air Quality

  Air Quality AQ Index Pollutant
Yesterday Moderate
OZONE
Current Good
OZONE
Saturday Good
OZONE
Sunday Good
OZONE
Monday Good
OZONE
Tuesday Good
OZONE
Wednesday Good
OZONE

Snow Depth

Station Depth Elevation
Echo Peak 1 in 7800 ft
Forestdale Creek 0 in 8029 ft
Blue Lakes 0 in 8000 ft
Rubicon #2 1 in 7500 ft
Fallen Leaf 0 in 6300 ft

Earthquake Activity

City Distance Mag. Time & Date
Gerlach-Empire, Nevada 139 miles 2.5 7:16 AM PDT
2014-10-23
Minimum magnitude displayed is 2.5.

Coastal Water Temperatures

Place Temperature
No Stations Reporting

Nearby Weather Stations